^^
Grace C. Lehan Memorial Weather Station Historical Data
Daily Summary for June 15, 2021 Units:  English    Metric   Both
Daily Weekly Monthly Yearly
  High: Low: Average:
Temperature: 50.2 °F 35.7 °F 42.9 °F
Dew Point: 41.2 °F 33.1 °F 36.4 °F
Humidity: 95% 59% 79%
Wind Speed: 8.7mph 0mph 1.3mph
Wind Gust: 18mph - -
Wind- - West
Pressure: 29.83 in 29.68 in -
Precipitation: 0.01 in    
 
 
Tabular Data for June 15, 2021
Time Temperature Dew Point Pressure Wind Wind Speed Wind Gust Humidity Rainfall Rate (Hourly) solar
00:04 42.6 °F 38.6 °F 29.76 in Calm   6 mph 85.6% 0.03 in 0 W/m2
00:09 42.5 °F 38.6 °F 29.75 in WSW 0.2 mph 3 mph 86% 0.03 in 0 W/m2
00:14 42.4 °F 38.6 °F 29.75 in Calm   3 mph 86.3% 0.03 in 0 W/m2
00:19 42.3 °F 38.7 °F 29.75 in Calm   3 mph 87% 0.03 in 0 W/m2
00:24 42.2 °F 38.6 °F 29.75 in Calm   3 mph 87% 0.03 in 0 W/m2
00:29 42.1 °F 38.7 °F 29.75 in Calm   3 mph 87.6% 0.03 in 0 W/m2
00:34 42 °F 38.7 °F 29.75 in Calm   3 mph 88% 0.03 in 0 W/m2
00:39 42 °F 38.7 °F 29.75 in Calm     88% 0.02 in 0 W/m2
00:44 41.9 °F 38.6 °F 29.74 in Calm     88% 0.02 in 0 W/m2
00:49 41.8 °F 38.6 °F 29.74 in Calm     88.2% 0.02 in 0 W/m2
00:54 41.7 °F 38.7 °F 29.74 in Calm     89% 0.02 in 0 W/m2
00:59 41.6 °F 38.6 °F 29.74 in Calm     89% 0.02 in 0 W/m2
01:04 41.5 °F 38.5 °F 29.75 in Calm     89% 0.02 in 0 W/m2
01:09 41.4 °F 38.4 °F 29.75 in Calm     89% 0.01 in 0 W/m2
01:14 41.3 °F 38.3 °F 29.75 in Calm     89% 0.01 in 0 W/m2
01:19 41.2 °F 38.3 °F 29.74 in Calm     89.4% 0.01 in 0 W/m2
01:24 41.2 °F 38.5 °F 29.74 in Calm     90% 0.01 in 0 W/m2
01:29 41.1 °F 38.4 °F 29.74 in Calm     90% 0.01 in 0 W/m2
01:34 41.1 °F 38.4 °F 29.73 in Calm     90% 0.01 in 0 W/m2
01:39 41.1 °F 38.4 °F 29.73 in Calm     90% 0.00 in 0 W/m2
01:44 41.1 °F 38.6 °F 29.73 in Calm     90.6% 0.00 in 0 W/m2
01:49 41.1 °F 38.7 °F 29.73 in Calm     91% 0.00 in 0 W/m2
01:54 41.1 °F 38.7 °F 29.74 in Calm     91% 0.00 in 0 W/m2
01:59 41.2 °F 38.8 °F 29.74 in Calm     91% 0.00 in 0 W/m2
02:04 41.2 °F 38.8 °F 29.74 in Calm     91% 0.00 in 0 W/m2
02:09 41.2 °F 38.8 °F 29.74 in Calm     91% 0.00 in 0 W/m2
02:14 41.3 °F 38.9 °F 29.73 in Calm     91% 0.00 in 0 W/m2
02:19 41.3 °F 38.9 °F 29.73 in Calm     91% 0.00 in 0 W/m2
02:24 41.3 °F 39.1 °F 29.73 in Calm     91.7% 0.00 in 0 W/m2
02:29 41.3 °F 39.1 °F 29.72 in Calm     91.6% 0.00 in 0 W/m2
02:34 41.3 °F 39.1 °F 29.72 in Calm     91.9% 0.00 in 0 W/m2
02:39 41.3 °F 38.9 °F 29.71 in Calm     91% 0.00 in 0 W/m2
02:44 41.3 °F 38.9 °F 29.71 in WSW 0.1 mph 2 mph 91% 0.00 in 0 W/m2
02:49 41.3 °F 38.9 °F 29.71 in Calm   2 mph 91% 0.00 in 0 W/m2
02:54 41.2 °F 38.8 °F 29.71 in Calm   2 mph 91% 0.00 in 0 W/m2
02:59 41.2 °F 38.7 °F 29.70 in Calm   2 mph 91% 0.00 in 0 W/m2
03:04 41.1 °F 38.7 °F 29.70 in Calm   2 mph 91% 0.00 in 0 W/m2
03:09 41 °F 38.5 °F 29.70 in Calm     91% 0.00 in 0 W/m2
03:14 40.8 °F 38.4 °F 29.70 in Calm     91% 0.00 in 0 W/m2
03:19 40.7 °F 38.3 °F 29.70 in Calm     91% 0.00 in 0 W/m2
03:24 40.6 °F 38.2 °F 29.70 in Calm     91% 0.00 in 0 W/m2
03:29 40.6 °F 38.1 °F 29.70 in Calm     91% 0.00 in 0 W/m2
03:34 40.5 °F 38.1 °F 29.70 in Calm     91% 0.00 in 0 W/m2
03:39 40.4 °F 38 °F 29.70 in Calm     91% 0.00 in 0 W/m2
03:44 40.3 °F 37.9 °F 29.70 in Calm     91% 0.00 in 0 W/m2
03:49 40.2 °F 37.8 °F 29.70 in Calm     91% 0.00 in 0 W/m2
03:54 40 °F 37.6 °F 29.70 in Calm     91% 0.00 in 0 W/m2
03:59 39.9 °F 37.5 °F 29.70 in Calm     91% 0.00 in 0 W/m2
04:00 39.8 °F 37.4 °F 29.69 in Calm     91% 0.00 in 0 W/m2
04:09 39.6 °F 37.2 °F 29.69 in Calm     91% 0.00 in 0 W/m2
04:14 39.5 °F 37.1 °F 29.69 in Calm     91% 0.00 in 0 W/m2
04:19 39.3 °F 36.9 °F 29.69 in Calm     91% 0.00 in 0 W/m2
04:24 39.2 °F 36.8 °F 29.69 in Calm     91% 0.00 in 0 W/m2
04:29 39.1 °F 36.7 °F 29.69 in Calm     91% 0.00 in 0 W/m2
04:34 38.9 °F 36.5 °F 29.69 in Calm     91% 0.00 in 0 W/m2
04:39 38.8 °F 36.4 °F 29.69 in Calm     91% 0.00 in 0 W/m2
04:44 38.6 °F 36.2 °F 29.69 in Calm     91% 0.00 in 0 W/m2
04:49 38.4 °F 36.1 °F 29.69 in Calm     91% 0.00 in 0 W/m2
04:54 38.3 °F 35.9 °F 29.69 in Calm     91% 0.00 in 0 W/m2
04:59 38.1 °F 35.7 °F 29.70 in Calm     91% 0.00 in 0 W/m2
05:04 38 °F 35.6 °F 29.70 in Calm     91% 0.00 in 0 W/m2
05:09 37.7 °F 35.4 °F 29.69 in Calm     91% 0.00 in 0 W/m2
05:14 37.5 °F 35.1 °F 29.69 in Calm     91% 0.00 in 0 W/m2
05:19 37.3 °F 34.9 °F 29.69 in Calm     91% 0.00 in 0 W/m2
05:24 37.1 °F 34.7 °F 29.69 in Calm     91% 0.00 in 0 W/m2
05:29 37 °F 34.8 °F 29.68 in Calm     91.6% 0.00 in 0 W/m2
05:34 36.9 °F 34.8 °F 29.69 in Calm     92% 0.00 in 0 W/m2
05:39 36.9 °F 34.8 °F 29.68 in Calm     92% 0.00 in 0 W/m2
05:44 36.9 °F 34.8 °F 29.68 in Calm     92% 0.00 in 0 W/m2
05:49 36.9 °F 34.8 °F 29.68 in Calm     92% 0.00 in 0 W/m2
05:54 36.8 °F 34.7 °F 29.68 in Calm     92% 0.00 in 0 W/m2
05:59 36.6 °F 34.7 °F 29.68 in Calm     92.5% 0.00 in 0 W/m2
06:04 36.5 °F 34.6 °F 29.68 in Calm     92.7% 0.00 in 0 W/m2
06:09 36.5 °F 34.4 °F 29.68 in Calm     92% 0.00 in 0 W/m2
06:14 36.3 °F 34.4 °F 29.68 in Calm     92.8% 0.00 in 0 W/m2
06:19 36.2 °F 34.3 °F 29.68 in Calm     93% 0.00 in 0 W/m2
06:24 36.1 °F 34.3 °F 29.68 in Calm     93% 0.00 in 0 W/m2
06:29 36 °F 34.2 °F 29.68 in Calm     93% 0.00 in 0 W/m2
06:34 35.9 °F 34.1 °F 29.68 in Calm     93% 0.00 in 0 W/m2
06:39 35.7 °F 33.9 °F 29.68 in Calm     93% 0.00 in 0 W/m2
06:44 35.7 °F 33.9 °F 29.68 in Calm     93% 0.00 in 0 W/m2
06:49 35.7 °F 33.9 °F 29.68 in Calm   1 mph 93% 0.00 in 5 W/m2
06:54 35.8 °F 34 °F 29.69 in Calm   1 mph 93% 0.00 in 11 W/m2
06:59 35.9 °F 34.1 °F 29.69 in Calm   1 mph 93% 0.00 in 12 W/m2
07:04 35.9 °F 34.2 °F 29.69 in Calm   1 mph 93.2% 0.00 in 18 W/m2
07:09 36 °F 34.4 °F 29.69 in Calm   1 mph 94% 0.00 in 23 W/m2
07:14 36.1 °F 34.5 °F 29.69 in WSW 0.1 mph 1 mph 94% 0.00 in 42 W/m2
07:19 36.3 °F 34.8 °F 29.69 in WSW 0.1 mph 3 mph 94% 0.00 in 32 W/m2
07:24 36.6 °F 35 °F 29.70 in Calm   3 mph 94% 0.00 in 35 W/m2
07:29 36.8 °F 35.2 °F 29.70 in WSW 0.1 mph 3 mph 94% 0.00 in 42 W/m2
07:34 37 °F 35.4 °F 29.70 in Calm   3 mph 94% 0.00 in 49 W/m2
07:39 37.2 °F 35.7 °F 29.70 in WSW 0.1 mph 2 mph 94% 0.00 in 44 W/m2
07:44 37.4 °F 35.9 °F 29.70 in WSW 0.1 mph 2 mph 94% 0.00 in 56 W/m2
07:49 37.6 °F 36 °F 29.69 in Calm   2 mph 94% 0.00 in 72 W/m2
07:54 37.8 °F 36.2 °F 29.69 in Calm   2 mph 94% 0.00 in 70 W/m2
07:59 38 °F 36.4 °F 29.69 in Calm   2 mph 94% 0.00 in 58 W/m2
08:00 38.1 °F 36.5 °F 29.69 in Calm   2 mph 94% 0.00 in 58 W/m2
08:09 38.6 °F 37.3 °F 29.68 in Calm     95% 0.00 in 186 W/m2
08:30 42.5 °F 41.2 °F 29.69 in Calm   9 mph 95% 0.00 in 214 W/m2
09:00 45.1 °F 39.6 °F 29.69 in WSW 2 mph 11 mph 81% 0.00 in 249 W/m2
09:30 43.7 °F 38.6 °F 29.69 in West 1 mph 12 mph 82% 0.00 in 97 W/m2
10:00 44.9 °F 38.5 °F 29.69 in Calm   9 mph 78% 0.00 in 124 W/m2
10:30 46 °F 38.5 °F 29.69 in Calm   7 mph 75% 0.00 in 153 W/m2
11:00 47 °F 38.8 °F 29.69 in West 1 mph 7 mph 73% 0.00 in 192 W/m2
11:30 48.4 °F 39.1 °F 29.69 in WSW 1 mph 9 mph 70% 0.00 in 213 W/m2
12:04 48.1 °F 36.5 °F 29.68 in WNW 1.3 mph 5 mph 64% 0.00 in 141 W/m2
12:09 48.1 °F 37 °F 29.68 in WNW 1.8 mph 9 mph 65.3% 0.00 in 127 W/m2
12:14 47.9 °F 36.6 °F 29.68 in West 4 mph 11 mph 64.7% 0.00 in 134 W/m2
12:19 47.8 °F 36.3 °F 29.69 in West 1.3 mph 11 mph 64.1% 0.00 in 118 W/m2
12:24 47.8 °F 36.8 °F 29.69 in West 2.3 mph 11 mph 65.4% 0.00 in 114 W/m2
12:29 47.8 °F 36.6 °F 29.69 in West 2.5 mph 14 mph 65.1% 0.00 in 102 W/m2
12:34 47.7 °F 36.3 °F 29.69 in West 1.7 mph 14 mph 64.4% 0.00 in 113 W/m2
12:39 47.6 °F 36.1 °F 29.68 in West 4.3 mph 13 mph 64.1% 0.00 in 134 W/m2
12:44 47.6 °F 36 °F 29.68 in West 2.8 mph 13 mph 64% 0.00 in 134 W/m2
12:49 47.6 °F 36.2 °F 29.68 in WSW 2.9 mph 13 mph 64.5% 0.00 in 116 W/m2
12:54 47.5 °F 36 °F 29.68 in WSW 2.1 mph 13 mph 64.2% 0.00 in 88 W/m2
12:59 47.4 °F 36.2 °F 29.68 in West 2.9 mph 13 mph 64.8% 0.00 in 100 W/m2
13:04 47.3 °F 36.1 °F 29.68 in WSW 1.9 mph 13 mph 65.1% 0.00 in 100 W/m2
13:09 47.2 °F 36.3 °F 29.68 in West 2.7 mph 10 mph 65.6% 0.00 in 123 W/m2
13:14 47.3 °F 36.6 °F 29.68 in WNW 1.2 mph 10 mph 66% 0.00 in 325 W/m2
13:19 47.7 °F 37.3 °F 29.68 in WNW 2.5 mph 11 mph 67.1% 0.00 in 376 W/m2
13:24 48.2 °F 37.2 °F 29.68 in West 3.5 mph 12 mph 65.5% 0.00 in 227 W/m2
13:29 48.6 °F 36.9 °F 29.68 in West 4.8 mph 14 mph 63.6% 0.00 in 239 W/m2
13:34 49.1 °F 37.5 °F 29.68 in West 1.5 mph 14 mph 64.2% 0.00 in 239 W/m2
13:39 49.5 °F 37.8 °F 29.68 in WSW 3.3 mph 16 mph 64% 0.00 in 262 W/m2
13:44 49.8 °F 37.1 °F 29.68 in West 4.1 mph 16 mph 61.5% 0.00 in 306 W/m2
13:49 50.1 °F 37.3 °F 29.68 in WSW 4.1 mph 16 mph 61.2% 0.00 in 306 W/m2
13:54 50.2 °F 37.7 °F 29.69 in West 3.1 mph 16 mph 62% 0.00 in 295 W/m2
13:59 50.2 °F 36.7 °F 29.69 in West 6.6 mph 18 mph 59.5% 0.00 in 244 W/m2
14:04 49.8 °F 36 °F 29.69 in West 5.3 mph 18 mph 59% 0.00 in 88 W/m2
14:09 49.2 °F 36 °F 29.69 in West 4.5 mph 12 mph 60.2% 0.00 in 109 W/m2
14:14 48.7 °F 36.3 °F 29.69 in WNW 5.3 mph 14 mph 62% 0.00 in 149 W/m2
14:19 48.4 °F 36.6 °F 29.69 in West 1.9 mph 14 mph 63.4% 0.00 in 135 W/m2
14:24 48.3 °F 36.9 °F 29.69 in WNW 5.8 mph 14 mph 64.3% 0.00 in 127 W/m2
14:29 48.2 °F 36.6 °F 29.70 in WNW 5.2 mph 14 mph 63.8% 0.00 in 114 W/m2
14:34 48.1 °F 36.7 °F 29.70 in West 3 mph 14 mph 64.4% 0.00 in 98 W/m2
14:39 48.1 °F 36.9 °F 29.70 in WNW 3.1 mph 13 mph 65% 0.00 in 93 W/m2
14:44 48.1 °F 37 °F 29.70 in West 2 mph 13 mph 65.3% 0.00 in 81 W/m2
14:49 48.2 °F 36.9 °F 29.70 in WNW 7.2 mph 18 mph 64.8% 0.00 in 69 W/m2
14:54 48 °F 36.5 °F 29.71 in WNW 2.9 mph 18 mph 64.2% 0.00 in 60 W/m2
14:59 47.8 °F 36.7 °F 29.71 in West 1.7 mph 18 mph 65.2% 0.00 in 46 W/m2
15:04 47.6 °F 36.6 °F 29.72 in WNW 5.2 mph 18 mph 65.3% 0.00 in 35 W/m2
15:09 47.4 °F 36.3 °F 29.72 in West 4.3 mph 14 mph 65% 0.00 in 58 W/m2
15:14 47.5 °F 36.4 °F 29.72 in West 1.7 mph 14 mph 65.3% 0.00 in 58 W/m2
15:19 47.5 °F 36.9 °F 29.72 in West 0.3 mph 14 mph 66.4% 0.00 in 47 W/m2
15:24 47.5 °F 37 °F 29.72 in WSW 0.8 mph 14 mph 66.7% 0.00 in 47 W/m2
15:29 47.4 °F 37 °F 29.73 in West 0.3 mph 14 mph 67.1% 0.00 in 39 W/m2
15:34 47.3 °F 37.1 °F 29.73 in WSW 1.5 mph 14 mph 67.4% 0.00 in 35 W/m2
15:39 47.1 °F 36.8 °F 29.72 in WSW 0.8 mph 9 mph 67% 0.00 in 33 W/m2
15:44 46.9 °F 36.7 °F 29.73 in WSW 1.1 mph 9 mph 67.3% 0.00 in 33 W/m2
15:49 46.7 °F 36.7 °F 29.73 in West 1 mph 9 mph 68% 0.00 in 23 W/m2
15:54 46.5 °F 36.4 °F 29.73 in WSW 1.3 mph 9 mph 67.6% 0.00 in 18 W/m2
15:59 46.4 °F 36.4 °F 29.73 in SW 0.2 mph 9 mph 68% 0.00 in 19 W/m2
16:09 46.2 °F 36.6 °F 29.73 in WSW 0.2 mph 5 mph 69% 0.00 in 16 W/m2
16:13 46.1 °F 36.5 °F 29.74 in WSW 0.3 mph 5 mph 69% 0.00 in 9 W/m2
16:19 46 °F 36.4 °F 29.74 in West 0.6 mph 7 mph 69% 0.00 in 5 W/m2
16:24 45.9 °F 36.4 °F 29.75 in West 0.3 mph 7 mph 69.1% 0.00 in 0 W/m2
16:29 45.9 °F 36.6 °F 29.75 in Calm   7 mph 69.8% 0.00 in 0 W/m2
16:34 45.9 °F 36.6 °F 29.75 in West 0.1 mph 7 mph 69.9% 0.00 in 0 W/m2
16:39 45.9 °F 36.3 °F 29.75 in West 1.1 mph 13 mph 69.1% 0.00 in 0 W/m2
16:44 45.9 °F 36.4 °F 29.76 in WNW 1.3 mph 13 mph 69.2% 0.00 in 0 W/m2
16:49 45.9 °F 36 °F 29.76 in West 0.7 mph 13 mph 68% 0.00 in 0 W/m2
16:54 45.9 °F 35.9 °F 29.76 in West 2.6 mph 13 mph 67.9% 0.00 in 0 W/m2
16:59 46 °F 35.6 °F 29.76 in West 0.4 mph 13 mph 67% 0.00 in 0 W/m2
17:04 46 °F 35.7 °F 29.77 in West 0.1 mph 13 mph 67% 0.00 in 0 W/m2
17:09 46 °F 35.8 °F 29.77 in West 0.8 mph 8 mph 67.3% 0.00 in 0 W/m2
17:14 45.9 °F 35.4 °F 29.77 in WSW 2.1 mph 11 mph 66.5% 0.00 in 0 W/m2
17:19 46 °F 35.2 °F 29.77 in West 2.4 mph 11 mph 65.8% 0.00 in 0 W/m2
17:24 46 °F 35.2 °F 29.77 in West 2.5 mph 11 mph 65.6% 0.00 in 0 W/m2
17:29 46.1 °F 34.7 °F 29.78 in West 6.1 mph 13 mph 64.4% 0.00 in 0 W/m2
17:34 46.2 °F 34.5 °F 29.78 in WNW 8.7 mph 18 mph 63.6% 0.00 in 0 W/m2
17:39 46.3 °F 34.4 °F 29.78 in WNW 5.6 mph 18 mph 63% 0.00 in 0 W/m2
17:44 46.2 °F 34.5 °F 29.79 in WNW 3.6 mph 18 mph 63.6% 0.00 in 0 W/m2
17:49 46 °F 34.5 °F 29.79 in WNW 4.8 mph 18 mph 64% 0.00 in 0 W/m2
17:54 45.9 °F 34.4 °F 29.79 in WNW 2.9 mph 18 mph 64% 0.00 in 0 W/m2
17:59 45.8 °F 34.5 °F 29.79 in WNW 1.4 mph 18 mph 64.6% 0.00 in 0 W/m2
18:04 45.6 °F 34.5 °F 29.79 in West 2.1 mph 18 mph 65% 0.00 in 0 W/m2
18:09 45.4 °F 34.4 °F 29.79 in West 4.3 mph 15 mph 65% 0.00 in 0 W/m2
18:14 45.2 °F 34.2 °F 29.79 in West 5.3 mph 16 mph 65% 0.00 in 0 W/m2
18:19 45.1 °F 34 °F 29.79 in West 4.7 mph 16 mph 65% 0.00 in 0 W/m2
18:24 44.9 °F 33.9 °F 29.80 in WNW 5.9 mph 18 mph 65% 0.00 in 0 W/m2
18:29 44.8 °F 33.7 °F 29.80 in West 5.8 mph 18 mph 65% 0.00 in 0 W/m2
18:34 44.7 °F 33.7 °F 29.81 in West 3.1 mph 18 mph 65% 0.00 in 0 W/m2
18:39 44.6 °F 33.9 °F 29.81 in WNW 4.7 mph 14 mph 66% 0.00 in 0 W/m2
18:44 44.4 °F 33.8 °F 29.81 in WNW 8.3 mph 17 mph 66% 0.00 in 0 W/m2
18:49 44.4 °F 33.8 °F 29.81 in WNW 6.8 mph 17 mph 66% 0.00 in 0 W/m2
18:54 44.3 °F 33.9 °F 29.82 in West 3.6 mph 17 mph 66.5% 0.00 in 0 W/m2
18:59 44.2 °F 34 °F 29.82 in WNW 1.6 mph 17 mph 67% 0.00 in 0 W/m2
19:04 44 °F 33.8 °F 29.82 in West 1.6 mph 17 mph 67% 0.00 in 0 W/m2
19:09 43.9 °F 33.6 °F 29.82 in WSW 1.6 mph 10 mph 67% 0.00 in 0 W/m2
19:14 43.7 °F 33.5 °F 29.82 in West 1.2 mph 12 mph 67% 0.00 in 0 W/m2
19:19 43.6 °F 33.3 °F 29.83 in WSW 0.5 mph 12 mph 67% 0.00 in 0 W/m2
19:24 43.4 °F 33.2 °F 29.83 in WSW 1.6 mph 12 mph 67% 0.00 in 0 W/m2
19:29 43.3 °F 33.1 °F 29.83 in WSW 3.5 mph 12 mph 67% 0.00 in 0 W/m2
19:34 43.2 °F 33.3 °F 29.83 in WSW 2 mph 12 mph 67.7% 0.00 in 0 W/m2
19:38 43.1 °F 33.3 °F 29.83 in West 0.1 mph 10 mph 68% 0.00 in 0 W/m2
Hartford County Weather
Compliments of Weather Underground - 2 mb